Latest Weather Observations for Lismore Airport

IDN60801

Issued at 7:33 am EST Tuesday 30 August 2016 (issued every 30 minutes, with the page automatically refreshed every 10 minutes)

About weather observations | Map of weather stations | Latest weather observations for NSW | Other Formats
Station Details ID: 058214 Name: LISMORE AIRPORT AWS Lat: -28.83 Lon: 153.26 Height: 9.21 m
Data from the previous 72 hours. | See also: Recent months at Lismore Airport
Date/Time
EST
Temp
°C
App
Temp
°C
Dew
Point
°C
Rel
Hum
%
Delta-T
°C
Wind Press
QNH
hPa
Press
MSL
hPa
Rain since
9am
mm
Dir  Spd
km/h
Gust
km/h
Spd
kts
Gust
kts
30/07:30am 11.3 10.3 11.0 98 0.2 N 7 9 4 5 1029.1 1029.1 0.2
30/07:00am 10.9 10.4 10.6 98 0.2 NNE 4 9 2 5 1028.7 1028.7 0.2
30/06:56am 10.8 10.6 10.5 98 0.2 NNE 2 7 1 4 1028.6 1028.6 0.2
30/06:46am 10.3 10.4 10.0 98 0.2 CALM 0 0 0 0 1028.3 1028.3 0.2
30/06:30am 10.0 8.3 9.7 98 0.2 N 9 13 5 7 1027.9 1027.9 0.2
30/06:00am 10.0 9.2 9.7 98 0.1 N 4 9 2 5 1027.4 1027.4 0.2
30/05:30am 9.7 9.6 9.4 98 0.1 CALM 0 0 0 0 1026.8 1026.8 0.2
30/05:00am 10.5 9.8 10.2 98 0.2 NE 4 9 2 5 1026.4 1026.4 0.2
30/04:30am 10.1 10.1 9.8 98 0.2 CALM 0 0 0 0 1026.2 1026.2 0.2
30/04:00am 10.1 9.0 9.8 98 0.1 NNE 6 7 3 4 1025.8 1025.8 0.2
30/03:30am 10.1 9.7 9.8 98 0.2 N 2 9 1 5 1025.7 1025.7 0.2
30/03:00am 10.0 8.6 9.7 98 0.1 N 7 11 4 6 1025.5 1025.5 0.2
30/02:30am 10.1 8.0 9.6 97 0.2 NNE 11 13 6 7 1025.9 1025.9 0.2
30/02:00am 10.8 8.5 10.3 97 0.3 N 13 15 7 8 1025.5 1025.5 0.2
30/01:54am 10.8 8.8 10.3 97 0.3 N 11 13 6 7 1025.5 1025.5 0.2
30/01:30am 10.1 8.7 9.5 96 0.3 N 7 11 4 6 1025.9 1025.9 0.2
30/01:05am 11.5 9.7 11.0 97 0.3 N 11 13 6 7 1026.0 1026.0 0.2
30/01:00am 11.5 9.7 11.0 97 0.3 N 11 13 6 7 1026.0 1026.0 0.2
30/12:43am 11.7 10.0 11.2 97 0.3 N 11 13 6 7 1026.1 1026.1 0.2
30/12:30am 11.7 10.0 11.2 97 0.3 N 11 15 6 8 1026.5 1026.5 0.2
30/12:25am 11.6 10.2 11.0 96 0.3 N 9 11 5 6 1026.4 1026.4 0.2
30/12:00am 12.2 11.0 11.6 96 0.3 NNE 9 11 5 6 1026.2 1026.2 0.2
 
Date/Time
EST
Temp
°C
App
Temp
°C
Dew
Point
°C
Rel
Hum
%
Delta-T
°C
Wind Press
QNH
hPa
Press
MSL
hPa
Rain since
9am
mm
Dir  Spd
km/h
Gust
km/h
Spd
kts
Gust
kts
29/11:30pm 12.3 11.1 11.7 96 0.3 NNE 9 11 5 6 1026.5 1026.5 0.2
29/11:00pm 11.6 9.9 9.9 89 0.9 N 9 11 5 6 1026.7 1026.7 0.2
29/10:30pm 12.5 11.2 11.1 91 0.7 N 9 11 5 6 1026.9 1026.9 0.2
29/10:00pm 13.3 12.0 12.4 94 0.5 N 11 13 6 7 1026.7 1026.7 0.2
29/09:30pm 13.5 12.5 12.2 92 0.7 N 9 11 5 6 1026.5 1026.5 0.2
29/09:00pm 14.7 13.9 12.9 89 1.0 NNE 9 11 5 6 1026.3 1026.3 0.2
29/08:30pm 15.1 14.1 13.3 89 1.0 NNE 11 13 6 7 1026.7 1026.7 0.2
29/08:00pm 14.7 13.8 12.7 88 1.1 N 9 11 5 6 1026.4 1026.4 0.2
29/07:30pm 14.6 13.6 12.3 86 1.3 NNW 9 15 5 8 1026.8 1026.8 0.2
29/07:00pm 17.1 16.3 13.0 77 2.3 NE 9 13 5 7 1025.9 1025.9 0.2
29/06:30pm 18.1 15.5 13.2 73 2.8 ENE 19 28 10 15 1025.6 1025.6 0.2
29/06:00pm 18.4 16.7 12.6 69 3.2 E 13 26 7 14 1025.2 1025.2 0.2
29/05:30pm 18.7 16.1 12.0 65 3.7 ENE 17 22 9 12 1025.1 1025.1 0.2
29/05:00pm 20.1 17.1 10.8 55 5.0 ENE 17 24 9 13 1024.7 1024.7 0.2
29/04:30pm 21.0 18.0 10.8 52 5.6 ENE 17 24 9 13 1024.4 1024.4 0.2
29/04:00pm 20.7 19.2 11.9 57 4.9 SE 11 15 6 8 1024.1 1024.1 0.2
29/03:30pm 22.3 19.7 12.0 52 5.8 ESE 17 22 9 12 1023.9 1023.9 0.2
29/03:00pm 23.9 24.1 10.6 43 7.3 CALM 0 2 0 1 1023.8 1023.8 0.2
29/02:30pm 22.7 21.1 8.8 41 7.4 ENE 7 13 4 7 1023.9 1023.9 0.2
29/02:00pm 23.0 22.1 10.8 46 6.7 SSW 6 11 3 6 1024.0 1024.0 0.2
29/01:30pm 22.7 22.3 9.8 44 7.0 SSW 2 11 1 6 1024.1 1024.1 0.2
29/01:00pm 22.1 20.6 8.6 42 7.1 ENE 6 13 3 7 1024.6 1024.6 0.2
29/12:30pm 21.9 20.3 10.1 47 6.4 SSE 9 13 5 7 1024.9 1024.9 0.2
29/12:00pm 21.2 20.0 10.4 50 5.8 ESE 7 13 4 7 1025.6 1025.6 0.2
29/11:30am 20.2 18.9 11.1 56 5.0 S 9 13 5 7 1025.6 1025.6 0.2
29/11:00am 20.1 19.7 12.3 61 4.3 ENE 6 11 3 6 1026.2 1026.2 0.2
29/10:30am 18.8 18.1 11.4 62 4.0 W 6 11 3 6 1026.5 1026.5 0.2
29/10:00am 17.8 16.5 11.1 65 3.6 SSW 9 13 5 7 1026.3 1026.3 0.0
29/09:30am 16.3 14.9 10.8 70 2.9 S 9 17 5 9 1026.6 1026.6 0.0
29/09:00am 13.9 14.3 12.5 91 0.8 NNE 2 7 1 4 1026.7 1026.7 0.0
29/08:52am 12.6 12.0 11.7 94 0.5 N 6 9 3 5 1026.7 1026.7 0.0
29/08:47am 12.3 11.5 11.8 97 0.3 NNE 7 9 4 5 1026.7 1026.7 0.0
29/08:30am 11.2 9.8 10.9 98 0.2 NNE 9 11 5 6 1026.8 1026.8 0.0
29/08:00am 9.3 7.4 9.0 98 0.1 N 9 9 5 5 1026.6 1026.6 0.0
29/07:30am 8.5 6.4 8.2 98 0.1 N 9 13 5 7 1026.0 1026.0 0.0
29/07:00am 6.9 4.8 6.6 98 0.1 N 7 9 4 5 1025.7 1025.7 0.0
29/06:30am 6.8 6.0 6.5 98 0.1 CALM 0 0 0 0 1025.2 1025.2 0.0
29/06:00am 6.9 5.7 6.6 98 0.1 N 2 9 1 5 1024.6 1024.6 0.0
29/05:43am 5.7 4.6 5.3 97 0.2 CALM 0 0 0 0 1024.4 1024.4 0.0
29/05:30am 5.5 4.0 5.1 97 0.2 NNW 2 6 1 3 1024.2 1024.2 0.0
29/05:00am 6.5 4.9 6.2 98 0.1 N 4 7 2 4 1023.9 1023.9 0.0
29/04:30am 6.8 4.9 6.5 98 0.1 N 6 9 3 5 1023.4 1023.4 0.0
29/04:00am 7.3 4.1 7.0 98 0.1 NNE 13 13 7 7 1023.0 1023.0 0.0
29/03:30am 7.1 5.0 6.8 98 0.1 N 7 9 4 5 1023.0 1023.0 0.0
29/03:00am 7.0 4.5 6.6 97 0.2 N 9 11 5 6 1023.1 1023.1 0.0
29/02:30am 7.9 7.3 7.5 97 0.2 CALM 0 9 0 5 1023.0 1023.0 0.0
29/02:00am 7.4 6.7 6.8 96 0.3 CALM 0 0 0 0 1023.2 1023.2 0.0
29/01:40am 7.7 7.0 7.0 95 0.3 CALM 0 0 0 0 1023.5 1023.5 0.0
29/01:30am 8.1 6.3 7.3 95 0.4 NNE 6 9 3 5 1023.3 1023.3 0.0
29/01:22am 8.3 6.4 7.7 96 0.3 NNE 7 9 4 5 1023.3 1023.3 0.0
29/01:00am 8.9 6.5 8.5 97 0.2 N 11 11 6 6 1023.3 1023.3 0.0
29/12:30am 8.7 6.9 8.1 96 0.3 N 7 9 4 5 1023.2 1023.2 0.0
29/12:00am 9.2 7.1 8.4 95 0.4 N 9 11 5 6 1023.1 1023.1 0.0
 
Date/Time
EST
Temp
°C
App
Temp
°C
Dew
Point
°C
Rel
Hum
%
Delta-T
°C
Wind Press
QNH
hPa
Press
MSL
hPa
Rain since
9am
mm
Dir  Spd
km/h
Gust
km/h
Spd
kts
Gust
kts
28/11:30pm 10.3 8.6 9.7 96 0.3 N 9 11 5 6 1023.0 1023.0 0.0
28/11:00pm 10.6 10.1 9.5 93 0.5 N 2 7 1 4 1022.9 1022.9 0.0
28/10:30pm 11.1 9.8 9.9 92 0.6 NNW 7 11 4 6 1022.9 1022.9 0.0
28/10:00pm 11.6 9.6 10.2 91 0.7 N 11 13 6 7 1022.9 1022.9 0.0
28/09:30pm 12.4 10.2 10.8 90 0.8 N 13 15 7 8 1022.7 1022.7 0.0
28/09:00pm 12.7 10.5 10.9 89 0.9 N 13 15 7 8 1022.7 1022.7 0.0
28/08:30pm 13.3 11.3 11.5 89 1.0 NNE 13 17 7 9 1022.6 1022.6 0.0
28/08:00pm 12.1 10.4 9.7 85 1.2 N 9 13 5 7 1022.3 1022.3 0.0
28/07:30pm 15.4 13.3 11.2 76 2.2 NNE 13 19 7 10 1022.0 1022.0 0.0
28/07:00pm 16.0 13.9 11.2 73 2.6 NE 13 19 7 10 1022.0 1022.0 0.0
28/06:30pm 16.7 14.5 10.8 68 3.2 NE 13 19 7 10 1021.6 1021.6 0.0
28/06:00pm 17.7 14.3 10.6 63 3.8 ENE 19 24 10 13 1021.3 1021.3 0.0
28/05:30pm 18.3 14.7 10.4 60 4.2 ENE 20 26 11 14 1021.1 1021.1 0.0
28/05:00pm 20.3 19.5 8.3 46 6.2 NE 2 20 1 11 1020.8 1020.8 0.0
28/04:30pm 21.6 20.8 6.7 38 7.6 CALM 0 0 0 0 1020.6 1020.6 0.0
28/04:00pm 22.5 21.4 6.7 36 8.1 N 2 7 1 4 1020.3 1020.3 0.0
28/03:30pm 22.1 19.5 7.9 40 7.4 N 11 17 6 9 1020.2 1020.2 0.0
28/03:00pm 22.2 19.6 7.6 39 7.6 N 11 17 6 9 1020.5 1020.5 0.0
28/02:30pm 22.4 19.7 5.4 33 8.5 NNW 9 15 5 8 1020.7 1020.7 0.0
28/02:00pm 22.5 20.7 7.1 37 7.9 N 6 15 3 8 1020.8 1020.8 0.0
28/01:30pm 22.2 20.7 8.3 41 7.3 NE 6 11 3 6 1021.0 1021.0 0.0
28/01:00pm 21.7 19.5 7.9 41 7.2 S 9 15 5 8 1021.5 1021.5 0.0
28/12:30pm 20.9 19.1 7.2 41 7.0 WNW 6 15 3 8 1021.9 1021.9 0.0
28/12:00pm 20.8 19.8 7.4 42 6.9 NE 2 9 1 5 1022.6 1022.6 0.0
28/11:30am 20.0 18.3 7.7 45 6.3 WSW 6 15 3 8 1023.1 1023.1 0.0
28/11:00am 19.8 18.1 10.0 53 5.2 WNW 9 15 5 8 1023.3 1023.3 0.0
28/10:30am 19.1 16.6 8.1 49 5.7 WSW 11 17 6 9 1023.9 1023.9 0.0
28/10:00am 18.2 15.2 7.9 51 5.2 W 13 19 7 10 1024.1 1024.1 0.0
28/09:30am 16.9 15.2 8.3 57 4.4 NW 7 13 4 7 1024.2 1024.2 0.0
28/09:00am 14.8 13.4 10.8 77 2.1 NNE 9 13 5 7 1024.5 1024.5 0.0
28/08:30am 12.8 11.4 9.4 80 1.7 NNE 7 11 4 6 1024.4 1024.4 0.0
28/08:00am 10.9 9.3 8.8 87 1.0 N 7 11 4 6 1024.5 1024.5 0.0
28/07:30am 8.9 6.3 7.7 92 0.6 N 11 15 6 8 1024.4 1024.4 0.0
28/07:00am 7.8 5.0 7.1 95 0.3 N 11 15 6 8 1023.8 1023.8 0.0
28/06:30am 6.8 4.6 6.4 97 0.2 N 7 17 4 9 1023.3 1023.3 0.0
28/06:00am 6.1 3.0 5.5 96 0.3 NNE 11 13 6 7 1022.8 1022.8 0.0
28/05:30am 6.1 3.8 5.5 96 0.3 NNW 7 9 4 5 1022.9 1022.9 0.0
28/05:00am 6.4 4.3 6.0 97 0.2 N 6 11 3 6 1022.6 1022.6 0.0
28/04:42am 5.2 3.6 4.3 94 0.4 NNW 2 6 1 3 1022.3 1022.3 0.0
28/04:30am 5.1 2.4 3.9 92 0.5 NNW 7 9 4 5 1022.1 1022.1 0.0
28/04:00am 7.0 4.5 6.4 96 0.3 N 9 13 5 7 1021.9 1021.9 0.0
28/03:30am 7.0 5.0 6.3 95 0.3 N 6 11 3 6 1021.8 1021.8 0.0
28/03:00am 7.2 4.7 6.5 95 0.3 NNW 9 13 5 7 1021.7 1021.7 0.0
28/02:30am 7.8 5.1 7.2 96 0.3 N 11 15 6 8 1021.8 1021.8 0.0
28/02:00am 7.6 5.6 6.9 95 0.3 N 7 9 4 5 1021.9 1021.9 0.0
28/01:30am 8.2 5.9 7.4 95 0.4 N 9 11 5 6 1022.2 1022.2 0.0
28/01:00am 8.0 6.0 7.1 94 0.4 N 7 9 4 5 1022.2 1022.2 0.0
28/12:30am 8.7 7.4 7.6 93 0.5 NNW 4 9 2 5 1022.2 1022.2 0.0
28/12:00am 9.3 6.1 8.4 94 0.4 NNW 15 17 8 9 1022.1 1022.1 0.0
 
Date/Time
EST
Temp
°C
App
Temp
°C
Dew
Point
°C
Rel
Hum
%
Delta-T
°C
Wind Press
QNH
hPa
Press
MSL
hPa
Rain since
9am
mm
Dir  Spd
km/h
Gust
km/h
Spd
kts
Gust
kts
27/11:30pm 9.1 8.6 8.0 93 0.5 CALM 0 0 0 0 1021.9 1021.9 0.0
27/11:00pm 9.8 7.7 8.4 91 0.7 NNE 9 13 5 7 1022.0 1022.0 0.0
27/10:30pm 10.5 8.6 8.9 90 0.8 NNE 9 11 5 6 1022.1 1022.1 0.0
27/10:00pm 11.0 9.5 9.3 89 0.8 NNE 7 9 4 5 1022.0 1022.0 0.0
27/09:30pm 10.5 8.9 8.9 90 0.8 N 7 9 4 5 1022.0 1022.0 0.0
27/09:00pm 10.4 8.9 9.0 91 0.7 NNE 7 9 4 5 1021.8 1021.8 0.0
27/08:30pm 10.3 9.9 8.4 88 0.9 CALM 0 0 0 0 1021.7 1021.7 0.0
27/08:00pm 10.5 10.1 8.3 86 1.1 CALM 0 0 0 0 1021.3 1021.3 0.0
27/07:30pm 11.9 11.8 9.3 84 1.3 CALM 0 0 0 0 1021.2 1021.2 0.0
27/07:00pm 12.0 10.3 8.3 78 1.8 WSW 7 7 4 4 1020.9 1020.9 0.0
27/06:30pm 14.1 12.9 9.5 74 2.4 SSW 6 7 3 4 1020.5 1020.5 0.0
27/06:00pm 14.5 12.6 9.1 70 2.7 SSW 9 9 5 5 1020.1 1020.1 0.0
27/05:30pm 15.3 13.4 9.2 67 3.1 SSE 9 11 5 6 1019.7 1019.7 0.0
27/05:00pm 16.5 13.5 9.2 62 3.8 S 15 20 8 11 1019.4 1019.4 0.0
27/04:30pm 17.1 13.8 9.5 61 4.0 SSE 17 24 9 13 1019.0 1019.0 0.0
27/04:00pm 18.1 13.8 7.8 51 5.2 SSW 20 28 11 15 1018.7 1018.7 0.0
27/03:30pm 18.8 14.4 7.6 48 5.7 SSW 20 28 11 15 1018.6 1018.6 0.0
27/03:00pm 19.3 15.1 8.3 49 5.7 SSW 20 30 11 16 1018.5 1018.5 0.0
27/02:30pm 18.8 15.1 9.3 54 5.0 SW 19 26 10 14 1018.6 1018.6 0.0
27/02:00pm 18.7 14.8 7.2 47 5.8 SSW 17 22 9 12 1018.5 1018.5 0.0
27/01:30pm 18.9 14.6 8.0 49 5.6 SSW 20 30 11 16 1018.6 1018.6 0.0
27/01:00pm 18.5 14.1 7.6 49 5.5 SW 20 28 11 15 1018.9 1018.9 0.0
27/12:30pm 18.7 14.7 8.4 51 5.3 SSW 19 30 10 16 1019.1 1019.1 0.0
27/12:00pm 19.0 15.2 8.9 52 5.3 SSW 19 28 10 15 1019.6 1019.6 0.0
27/11:30am 17.6 13.4 7.6 52 5.0 SSW 19 28 10 15 1019.8 1019.8 0.0
27/11:00am 18.0 13.9 7.7 51 5.2 SSW 19 26 10 14 1020.1 1020.1 0.0
27/10:30am 16.9 12.4 7.0 52 4.9 SSW 20 30 11 16 1020.2 1020.2 0.0
27/10:00am 16.0 11.6 6.4 53 4.7 WSW 19 30 10 16 1020.3 1020.3 0.0
27/09:30am 15.9 11.6 6.9 55 4.4 WSW 19 26 10 14 1020.4 1020.4 0.0
27/09:00am 14.8 10.5 5.1 52 4.5 SW 17 24 9 13 1020.7 1020.7 0.0
27/08:30am 13.8 11.6 8.0 68 2.9 NNW 9 13 5 7 1020.5 1020.5 0.0
27/08:00am 11.9 10.8 7.0 72 2.3 NE 2 7 1 4 1020.3 1020.3 0.0

Other Formats:

Comma delimited format used in spreadsheet applications
http://www.bom.gov.au/fwo/IDN60801/IDN60801.94572.axf

JavaScript Object Notation format (JSON) in row-major order
http://www.bom.gov.au/fwo/IDN60801/IDN60801.94572.json